Time;durP1;ratioP1;P1;durP2;ratioP2;P2;SDS_P1;SDS_P2;PMS_P1;PMS_P2;Temp;Humidity;BMP_temperature;BMP_pressure;BME280_temperature;BME280_humidity;BME280_pressure;Samples;Min_cycle;Max_cycle;Signal;HPM_P1;HPM_P2
2023/09/01 00:00:41;;;;;;;1.43;1.30;;;12.50;99.90;;;;;;5014194;28;20214;-85
2023/09/01 00:03:08;;;;;;;2.67;1.27;;;12.50;99.90;;;;;;5031641;28;20207;-87
2023/09/01 00:05:34;;;;;;;2.17;1.67;;;12.50;99.90;;;;;;4998476;28;20246;-84
2023/09/01 00:08:00;;;;;;;3.23;1.17;;;12.50;99.90;;;;;;4996941;28;20218;-85
2023/09/01 00:10:26;;;;;;;1.53;1.10;;;12.40;99.90;;;;;;5008054;28;20559;-84
2023/09/01 00:12:51;;;;;;;1.30;0.90;;;12.40;99.90;;;;;;4981218;28;20249;-87
2023/09/01 00:15:17;;;;;;;2.23;1.23;;;12.20;99.90;;;;;;4982065;28;20203;-87
2023/09/01 00:17:43;;;;;;;1.60;1.27;;;12.00;99.90;;;;;;5001702;28;20919;-84
2023/09/01 00:20:10;;;;;;;0.93;0.83;;;11.70;99.90;;;;;;5005996;28;20302;-87
2023/09/01 00:22:36;;;;;;;2.33;0.93;;;11.60;99.90;;;;;;5003157;28;20215;-87
2023/09/01 00:25:03;;;;;;;2.70;1.50;;;11.60;99.90;;;;;;5009205;28;20236;-85
2023/09/01 00:27:28;;;;;;;1.93;1.23;;;11.60;99.90;;;;;;5018686;28;20260;-88
2023/09/01 00:29:54;;;;;;;1.10;1.00;;;11.70;99.90;;;;;;5035097;28;20721;-86
2023/09/01 00:32:20;;;;;;;1.07;1.00;;;11.70;99.90;;;;;;5002396;28;20227;-85
2023/09/01 00:34:46;;;;;;;2.30;1.10;;;11.70;99.90;;;;;;5016006;28;20257;-86
2023/09/01 00:37:11;;;;;;;1.57;0.93;;;11.70;99.90;;;;;;5013570;28;21081;-86
2023/09/01 00:39:37;;;;;;;1.33;0.77;;;11.60;99.90;;;;;;4985368;28;20742;-87
2023/09/01 00:42:03;;;;;;;1.53;1.43;;;11.60;99.90;;;;;;5002784;28;21101;-86
2023/09/01 00:44:29;;;;;;;0.83;0.83;;;11.60;99.90;;;;;;5020591;28;20275;-87
2023/09/01 00:46:54;;;;;;;1.20;1.10;;;11.60;99.90;;;;;;5007473;28;20751;-84
2023/09/01 00:49:20;;;;;;;1.53;1.43;;;11.50;99.90;;;;;;5002694;28;20712;-83
2023/09/01 00:51:47;;;;;;;1.27;1.17;;;11.50;99.90;;;;;;4989778;28;20574;-87
2023/09/01 00:54:14;;;;;;;1.53;1.00;;;11.40;99.90;;;;;;5020252;28;20197;-85
2023/09/01 00:56:43;;;;;;;1.43;1.33;;;11.30;99.90;;;;;;5002280;28;20217;-84
2023/09/01 00:59:08;;;;;;;1.90;1.80;;;11.20;99.90;;;;;;5002759;28;20223;-86
2023/09/01 01:01:34;;;;;;;1.37;1.27;;;11.20;99.90;;;;;;4995956;28;20277;-86
2023/09/01 01:04:01;;;;;;;1.80;1.20;;;11.20;99.90;;;;;;5013539;28;20291;-85
2023/09/01 01:06:35;;;;;;;1.90;1.03;;;11.30;99.90;;;;;;5017880;28;20183;-87
2023/09/01 01:09:13;;;;;;;1.80;1.17;;;11.40;99.90;;;;;;5002840;28;20176;-87
2023/09/01 01:12:08;;;;;;;1.50;1.20;;;11.40;99.90;;;;;;5021940;28;20242;-87
2023/09/01 01:14:40;;;;;;;2.80;1.73;;;11.30;99.90;;;;;;4982863;28;20223;-87
2023/09/01 01:17:08;;;;;;;0.87;0.87;;;11.20;99.90;;;;;;5000291;28;20219;-84
2023/09/01 01:19:48;;;;;;;1.97;1.63;;;11.10;99.90;;;;;;4996895;28;20453;-84
2023/09/01 01:22:14;;;;;;;1.33;1.03;;;11.00;99.90;;;;;;5012773;28;20215;-84
2023/09/01 01:24:40;;;;;;;1.60;1.27;;;11.00;99.90;;;;;;4984348;28;20222;-88
2023/09/01 01:27:06;;;;;;;3.37;1.27;;;10.90;99.90;;;;;;4984887;28;20595;-86
2023/09/01 01:29:31;;;;;;;1.60;1.20;;;10.80;99.90;;;;;;5018544;28;20226;-84
2023/09/01 01:31:58;;;;;;;0.80;0.73;;;10.80;99.90;;;;;;5005040;28;20750;-85
2023/09/01 01:34:36;;;;;;;2.63;1.60;;;10.80;99.90;;;;;;5001336;28;20334;-83
2023/09/01 01:37:39;;;;;;;4.43;1.77;;;10.80;99.90;;;;;;5008450;28;20271;-84
2023/09/01 01:40:07;;;;;;;1.27;1.17;;;10.70;99.90;;;;;;4981003;28;20222;-86
2023/09/01 01:42:37;;;;;;;0.60;0.60;;;10.60;99.90;;;;;;5017266;28;20237;-86
2023/09/01 01:45:04;;;;;;;1.00;1.00;;;10.40;99.90;;;;;;5001649;28;20616;-85
2023/09/01 01:47:32;;;;;;;1.20;1.10;;;10.30;99.90;;;;;;5000498;28;20602;-87
2023/09/01 01:49:58;;;;;;;2.97;1.27;;;10.30;99.90;;;;;;5015856;28;20272;-84
2023/09/01 01:52:23;;;;;;;1.60;1.50;;;10.30;99.90;;;;;;5009901;28;20227;-87
2023/09/01 01:54:49;;;;;;;1.07;0.90;;;10.30;99.90;;;;;;4983541;28;20289;-85
2023/09/01 01:57:15;;;;;;;2.37;1.47;;;10.40;99.90;;;;;;5001980;28;20184;-85
2023/09/01 01:59:41;;;;;;;1.63;1.53;;;10.20;99.90;;;;;;5020110;28;20206;-86
2023/09/01 02:02:07;;;;;;;1.40;1.30;;;10.20;99.90;;;;;;5004186;28;20677;-84
2023/09/01 02:04:33;;;;;;;2.80;1.60;;;10.30;99.90;;;;;;4983985;28;20266;-87
2023/09/01 02:06:59;;;;;;;2.77;1.23;;;10.50;99.90;;;;;;5006954;28;21012;-88
2023/09/01 02:09:26;;;;;;;2.63;1.93;;;10.50;99.90;;;;;;5017853;28;20220;-87
2023/09/01 02:11:52;;;;;;;2.63;2.43;;;10.70;99.90;;;;;;5009315;28;20241;-86
2023/09/01 02:14:18;;;;;;;2.50;1.70;;;10.80;99.90;;;;;;5020962;28;20226;-85
2023/09/01 02:16:44;;;;;;;2.10;1.93;;;10.80;99.90;;;;;;5027872;28;20225;-87
2023/09/01 02:19:11;;;;;;;3.53;2.33;;;10.90;99.90;;;;;;4995703;28;20217;-87
2023/09/01 02:21:37;;;;;;;2.20;2.00;;;10.90;99.90;;;;;;5019104;28;20222;-84
2023/09/01 02:24:05;;;;;;;3.47;2.03;;;10.90;99.90;;;;;;5021340;28;20210;-85
2023/09/01 02:26:31;;;;;;;2.03;1.53;;;10.90;99.90;;;;;;5022201;28;20642;-87
2023/09/01 02:28:57;;;;;;;2.53;2.33;;;11.00;99.90;;;;;;4991352;28;20571;-87
2023/09/01 02:31:24;;;;;;;2.13;1.93;;;11.00;99.90;;;;;;4997472;28;20671;-87
2023/09/01 02:33:50;;;;;;;2.67;2.47;;;11.00;99.90;;;;;;5017720;28;20309;-88
2023/09/01 02:36:36;;;;;;;5.87;1.70;;;11.10;99.90;;;;;;5001852;28;20206;-87
2023/09/01 02:39:04;;;;;;;2.07;1.83;;;11.10;99.90;;;;;;5039288;28;20190;-87
2023/09/01 02:41:30;;;;;;;2.37;1.80;;;11.00;99.90;;;;;;4986178;28;20388;-86
2023/09/01 02:43:57;;;;;;;4.37;2.70;;;11.00;99.90;;;;;;5034904;28;20233;-87
2023/09/01 02:46:23;;;;;;;1.13;1.00;;;10.90;99.90;;;;;;5030268;28;20253;-84
2023/09/01 02:48:50;;;;;;;2.60;1.83;;;10.80;99.90;;;;;;5008167;28;20217;-88
2023/09/01 02:51:16;;;;;;;2.00;1.30;;;10.70;99.90;;;;;;5038120;28;20643;-86
2023/09/01 02:53:42;;;;;;;1.90;1.23;;;10.60;99.90;;;;;;4986319;28;20198;-84
2023/09/01 02:56:08;;;;;;;1.90;1.70;;;10.40;99.90;;;;;;5018560;28;20214;-87
2023/09/01 02:58:34;;;;;;;2.10;1.30;;;10.30;99.90;;;;;;5027957;28;20229;-86
2023/09/01 03:01:08;;;;;;;1.43;1.27;;;10.20;99.90;;;;;;5026062;28;20237;-87
2023/09/01 03:03:34;;;;;;;1.33;1.23;;;10.10;99.90;;;;;;5036797;28;20231;-88
2023/09/01 03:06:00;;;;;;;1.60;1.40;;;10.00;99.90;;;;;;5002013;28;20193;-83
2023/09/01 03:08:26;;;;;;;0.77;0.77;;;10.10;99.90;;;;;;5020617;28;20226;-86
2023/09/01 03:10:52;;;;;;;1.20;1.10;;;10.10;99.90;;;;;;4991560;28;20749;-85
2023/09/01 03:13:19;;;;;;;2.33;1.63;;;10.10;99.90;;;;;;4996881;28;20228;-86
2023/09/01 03:15:45;;;;;;;2.30;1.50;;;10.00;99.90;;;;;;4979742;28;20634;-87
2023/09/01 03:18:11;;;;;;;1.93;1.73;;;10.10;99.90;;;;;;4980592;28;20653;-84
2023/09/01 03:20:41;;;;;;;2.43;1.87;;;10.10;99.90;;;;;;5000656;28;20660;-86
2023/09/01 03:23:07;;;;;;;2.13;1.73;;;10.10;99.90;;;;;;4998731;28;20692;-87
2023/09/01 03:25:32;;;;;;;1.30;1.17;;;10.00;99.90;;;;;;4999811;28;20228;-85
2023/09/01 03:27:58;;;;;;;2.40;1.43;;;9.80;99.90;;;;;;4999455;28;20230;-86
2023/09/01 03:30:24;;;;;;;1.33;1.23;;;9.70;99.90;;;;;;4976039;28;20187;-87
2023/09/01 03:32:49;;;;;;;2.03;1.67;;;9.70;99.90;;;;;;4997666;28;20818;-87
2023/09/01 03:35:15;;;;;;;1.53;1.43;;;9.60;99.90;;;;;;4982683;28;20736;-87
2023/09/01 03:37:41;;;;;;;1.03;0.93;;;9.50;99.90;;;;;;4981989;28;20709;-87
2023/09/01 03:40:09;;;;;;;1.47;0.90;;;9.50;99.90;;;;;;4982652;28;20774;-85
2023/09/01 03:42:39;;;;;;;0.90;0.90;;;9.50;99.90;;;;;;4982840;28;20657;-87
2023/09/01 03:45:05;;;;;;;1.30;1.20;;;9.50;99.90;;;;;;4999504;28;20215;-87
2023/09/01 03:47:31;;;;;;;1.23;1.13;;;9.50;99.90;;;;;;4999422;28;20211;-87
2023/09/01 03:49:57;;;;;;;2.10;1.77;;;9.50;99.90;;;;;;4998691;28;20207;-85
2023/09/01 03:52:23;;;;;;;2.13;1.93;;;9.50;99.90;;;;;;5014221;28;20743;-87
2023/09/01 03:54:49;;;;;;;2.00;1.77;;;9.50;99.90;;;;;;5001698;28;20214;-84
2023/09/01 03:57:15;;;;;;;4.83;1.83;;;9.60;99.90;;;;;;5003555;28;20236;-87
2023/09/01 03:59:42;;;;;;;2.73;1.73;;;9.70;99.90;;;;;;5003650;28;20648;-85
2023/09/01 04:02:08;;;;;;;8.70;1.17;;;9.60;99.90;;;;;;5001952;28;20605;-85
2023/09/01 04:04:34;;;;;;;0.97;0.90;;;9.70;99.90;;;;;;5003259;28;20767;-84
2023/09/01 04:07:00;;;;;;;1.33;1.10;;;9.70;99.90;;;;;;4985136;28;20293;-86
2023/09/01 04:09:25;;;;;;;0.53;0.53;;;9.70;99.90;;;;;;4986617;28;20200;-88
2023/09/01 04:11:51;;;;;;;6.33;1.10;;;9.70;99.90;;;;;;5012965;28;20241;-87
2023/09/01 04:14:17;;;;;;;1.83;1.17;;;9.80;99.90;;;;;;4991243;28;20222;-84
2023/09/01 04:16:43;;;;;;;1.10;1.00;;;9.80;99.90;;;;;;5018511;28;20233;-87
2023/09/01 04:19:09;;;;;;;1.30;1.13;;;9.90;99.90;;;;;;5017598;28;20225;-89
2023/09/01 04:21:35;;;;;;;2.80;1.70;;;10.00;99.90;;;;;;5009561;28;20217;-85
2023/09/01 04:24:01;;;;;;;2.00;1.77;;;10.10;99.90;;;;;;5008437;28;20229;-87
2023/09/01 04:26:27;;;;;;;2.23;2.03;;;10.10;99.90;;;;;;5006915;28;20231;-84
2023/09/01 04:28:52;;;;;;;2.80;1.60;;;10.20;99.90;;;;;;5035659;28;20751;-86
2023/09/01 04:31:29;;;;;;;8.83;1.53;;;10.20;99.90;;;;;;4999075;28;20562;-88
2023/09/01 04:33:55;;;;;;;3.40;1.97;;;10.10;99.90;;;;;;4995191;28;20285;-83
2023/09/01 04:36:21;;;;;;;1.23;1.13;;;10.00;99.90;;;;;;5041386;28;20186;-88
2023/09/01 04:38:47;;;;;;;2.13;1.93;;;9.90;99.90;;;;;;5022768;28;20190;-87
2023/09/01 04:41:12;;;;;;;27.17;2.43;;;9.70;99.90;;;;;;5038993;28;20217;-86
2023/09/01 04:43:38;;;;;;;1.40;1.20;;;9.40;99.90;;;;;;5028855;28;20237;-85
2023/09/01 04:46:04;;;;;;;1.33;1.23;;;9.40;99.90;;;;;;4996362;28;20312;-85
2023/09/01 04:48:31;;;;;;;2.33;1.67;;;9.30;99.90;;;;;;5039167;28;20226;-87
2023/09/01 04:50:57;;;;;;;1.10;0.93;;;9.50;99.90;;;;;;5037702;28;20218;-86
2023/09/01 04:53:23;;;;;;;1.47;1.37;;;9.70;99.90;;;;;;5006628;28;20222;-84
2023/09/01 04:55:49;;;;;;;2.57;1.07;;;9.70;99.90;;;;;;5011267;28;20687;-87
2023/09/01 04:58:15;;;;;;;2.43;1.30;;;9.70;99.90;;;;;;4997425;28;20222;-86
2023/09/01 05:00:41;;;;;;;1.83;1.60;;;9.80;99.90;;;;;;5037740;28;21071;-85
2023/09/01 05:03:10;;;;;;;2.80;2.53;;;9.90;99.90;;;;;;5021574;28;20211;-85
2023/09/01 05:05:36;;;;;;;3.90;2.20;;;10.20;99.90;;;;;;5007581;28;20217;-87
2023/09/01 05:08:02;;;;;;;3.33;2.43;;;10.30;99.90;;;;;;5023628;28;20224;-85
2023/09/01 05:10:28;;;;;;;3.77;1.30;;;10.50;99.90;;;;;;5042804;28;20226;-87
2023/09/01 05:12:54;;;;;;;2.83;1.73;;;10.60;99.90;;;;;;5023444;28;20299;-87
2023/09/01 05:15:19;;;;;;;2.83;2.47;;;10.70;99.90;;;;;;5040181;28;20182;-87
2023/09/01 05:17:46;;;;;;;5.53;1.97;;;10.80;99.90;;;;;;5042463;28;20280;-87
2023/09/01 05:20:12;;;;;;;2.57;1.80;;;11.00;99.90;;;;;;5041388;28;20515;-84
2023/09/01 05:22:38;;;;;;;4.33;2.80;;;11.20;99.90;;;;;;5023560;28;21006;-89
2023/09/01 05:25:04;;;;;;;3.57;2.77;;;11.50;99.90;;;;;;5040451;28;20218;-87
2023/09/01 05:27:30;;;;;;;2.83;2.53;;;11.90;99.90;;;;;;5042077;28;20283;-87
2023/09/01 05:29:55;;;;;;;3.63;3.03;;;12.10;99.90;;;;;;5024370;28;20581;-88
2023/09/01 05:32:22;;;;;;;3.67;2.80;;;12.20;99.90;;;;;;5024552;28;21126;-85
2023/09/01 05:34:48;;;;;;;4.70;3.27;;;12.20;99.90;;;;;;4994911;28;20215;-88
2023/09/01 05:37:14;;;;;;;3.93;2.87;;;12.30;99.90;;;;;;5012296;28;20279;-84
2023/09/01 05:39:40;;;;;;;4.67;2.77;;;12.40;99.90;;;;;;5037894;28;20655;-88
2023/09/01 05:42:07;;;;;;;10.63;3.10;;;12.40;99.90;;;;;;5021760;28;20202;-87
2023/09/01 05:44:33;;;;;;;3.27;2.57;;;12.50;99.90;;;;;;5040974;28;20263;-85
2023/09/01 05:46:59;;;;;;;12.17;4.83;;;12.50;99.90;;;;;;5026803;28;20277;-85
2023/09/01 05:49:25;;;;;;;6.83;2.37;;;12.70;99.90;;;;;;5014412;28;20214;-86
2023/09/01 05:51:51;;;;;;;5.97;3.23;;;12.80;99.90;;;;;;5035705;28;20218;-84
2023/09/01 05:54:18;;;;;;;5.23;4.00;;;12.90;99.90;;;;;;5004280;28;20187;-88
2023/09/01 05:56:44;;;;;;;6.30;3.23;;;12.90;99.90;;;;;;5024454;28;20215;-87
2023/09/01 05:59:10;;;;;;;4.40;3.37;;;13.00;99.90;;;;;;5007402;28;20214;-85
2023/09/01 06:01:36;;;;;;;5.47;2.97;;;13.20;99.90;;;;;;5015418;28;20315;-86
2023/09/01 06:04:03;;;;;;;4.73;3.93;;;13.40;99.90;;;;;;5034128;28;20242;-86
2023/09/01 06:06:31;;;;;;;5.27;3.27;;;13.60;99.90;;;;;;5007454;28;20198;-87
2023/09/01 06:08:58;;;;;;;4.03;2.90;;;14.20;99.90;;;;;;5024712;28;20202;-87
2023/09/01 06:11:24;;;;;;;5.47;3.80;;;15.30;99.90;;;;;;5005279;28;20260;-87
2023/09/01 06:13:50;;;;;;;5.47;4.47;;;16.50;99.90;;;;;;5014863;28;20460;-86
2023/09/01 06:16:16;;;;;;;10.67;3.93;;;17.40;99.90;;;;;;5030672;28;20676;-88
2023/09/01 06:18:41;;;;;;;3.90;3.30;;;18.30;99.90;;;;;;5024770;28;20297;-88
2023/09/01 06:21:10;;;;;;;2.50;2.30;;;19.00;99.90;;;;;;5024265;28;20182;-85
2023/09/01 06:23:40;;;;;;;6.23;1.93;;;19.00;99.90;;;;;;5004811;28;20253;-82
2023/09/01 06:26:06;;;;;;;3.07;1.90;;;18.50;99.90;;;;;;5020391;28;20234;-87
2023/09/01 06:28:33;;;;;;;2.60;2.17;;;18.10;99.90;;;;;;5031961;28;20740;-85
2023/09/01 06:30:59;;;;;;;3.40;1.90;;;17.10;99.90;;;;;;5015725;28;21055;-87
2023/09/01 06:33:25;;;;;;;5.83;2.37;;;16.60;99.90;;;;;;5038504;28;20190;-83
2023/09/01 06:35:50;;;;;;;3.43;1.87;;;16.40;99.90;;;;;;5023844;28;20201;-83
2023/09/01 06:38:16;;;;;;;5.13;2.27;;;16.30;99.90;;;;;;4989318;28;20244;-83
2023/09/01 06:40:43;;;;;;;2.03;1.67;;;16.50;99.90;;;;;;5003508;28;20337;-86
2023/09/01 06:43:09;;;;;;;4.37;1.93;;;16.40;99.90;;;;;;5002543;28;20270;-84
2023/09/01 06:45:34;;;;;;;4.57;2.00;;;16.30;99.90;;;;;;5006670;28;20889;-85
2023/09/01 06:48:00;;;;;;;2.30;2.10;;;16.20;99.90;;;;;;5023756;28;20209;-85
2023/09/01 06:50:28;;;;;;;2.00;1.60;;;16.40;99.90;;;;;;4987622;28;21181;-84
2023/09/01 06:52:53;;;;;;;3.03;2.43;;;16.40;99.90;;;;;;5016365;28;20565;-83
2023/09/01 06:55:19;;;;;;;1.87;1.40;;;16.70;99.90;;;;;;4995893;28;20794;-85
2023/09/01 06:57:45;;;;;;;2.47;2.20;;;17.20;99.90;;;;;;5007783;28;20597;-83
2023/09/01 07:00:12;;;;;;;2.50;2.00;;;18.60;99.90;;;;;;5005206;28;20190;-87
2023/09/01 07:02:37;;;;;;;2.23;1.77;;;20.60;99.90;;;;;;5020473;28;20190;-84
2023/09/01 07:05:05;;;;;;;1.53;1.43;;;22.20;99.90;;;;;;5017798;28;20332;-84
2023/09/01 07:07:30;;;;;;;1.50;1.40;;;23.00;99.90;;;;;;5011947;28;20294;-84
2023/09/01 07:09:56;;;;;;;4.13;1.93;;;23.00;99.90;;;;;;5024587;28;20218;-84
2023/09/01 07:12:22;;;;;;;1.93;1.77;;;23.50;99.90;;;;;;5017136;28;20415;-84
2023/09/01 07:14:48;;;;;;;4.00;1.57;;;24.90;99.90;;;;;;4981959;28;20195;-83
2023/09/01 07:17:19;;;;;;;2.80;1.50;;;25.70;99.90;;;;;;5013985;28;20226;-82
2023/09/01 07:19:44;;;;;;;1.23;1.13;;;25.40;99.90;;;;;;4998886;28;20717;-83
2023/09/01 07:22:10;;;;;;;1.45;1.35;;;24.20;99.90;;;;;;4965603;28;20684;-85
2023/09/01 07:24:36;;;;;;;2.00;1.30;;;23.00;99.90;;;;;;4999383;28;20231;-84
2023/09/01 07:27:02;;;;;;;1.40;1.30;;;21.10;99.90;;;;;;4999278;28;20235;-83
2023/09/01 07:29:28;;;;;;;3.55;1.35;;;20.10;99.90;;;;;;4981697;28;20219;-85
2023/09/01 07:31:54;;;;;;;1.80;1.20;;;19.40;99.90;;;;;;4999549;28;20889;-82
2023/09/01 07:34:19;;;;;;;4.00;2.10;;;19.10;99.90;;;;;;4981896;28;20215;-85
2023/09/01 07:36:45;;;;;;;2.60;1.27;;;18.70;99.90;;;;;;4999508;28;20218;-85
2023/09/01 07:39:11;;;;;;;1.50;1.20;;;18.90;99.90;;;;;;4981882;28;20195;-86
2023/09/01 07:41:36;;;;;;;2.13;1.50;;;19.10;99.90;;;;;;4982416;28;20203;-83
2023/09/01 07:44:02;;;;;;;1.80;1.37;;;18.80;99.90;;;;;;4997803;28;21084;-83
2023/09/01 07:46:33;;;;;;;1.47;1.20;;;19.10;99.90;;;;;;4998710;28;20573;-84
2023/09/01 07:48:59;;;;;;;1.40;1.30;;;18.80;99.90;;;;;;4998667;28;20209;-84
2023/09/01 07:51:25;;;;;;;3.10;2.00;;;18.40;99.90;;;;;;4997574;28;20270;-84
2023/09/01 07:53:51;;;;;;;3.10;1.63;;;18.60;99.90;;;;;;4998703;28;20606;-83
2023/09/01 07:56:16;;;;;;;2.27;1.60;;;18.50;99.90;;;;;;4999205;28;20763;-86
2023/09/01 07:58:42;;;;;;;0.97;0.97;;;18.80;99.90;;;;;;4982449;28;20226;-85
2023/09/01 08:01:08;;;;;;;1.13;1.00;;;19.00;99.90;;;;;;4982174;28;20303;-84
2023/09/01 08:03:34;;;;;;;2.93;1.70;;;18.60;99.90;;;;;;4998060;28;20234;-83
2023/09/01 08:05:59;;;;;;;1.33;1.20;;;18.80;99.90;;;;;;4998595;28;20191;-86
2023/09/01 08:08:25;;;;;;;1.33;1.23;;;18.60;99.90;;;;;;4998149;28;20222;-85
2023/09/01 08:10:52;;;;;;;1.60;1.40;;;18.30;99.90;;;;;;4997319;28;20246;-84
2023/09/01 08:13:17;;;;;;;1.60;1.50;;;18.20;99.90;;;;;;5011413;28;20230;-84
2023/09/01 08:15:43;;;;;;;2.07;1.40;;;18.00;99.90;;;;;;4990157;28;20222;-87
2023/09/01 08:18:09;;;;;;;3.17;1.30;;;17.80;99.90;;;;;;4997692;28;21052;-85
2023/09/01 08:20:35;;;;;;;1.53;1.30;;;17.70;99.90;;;;;;5018949;28;20738;-84
2023/09/01 08:23:01;;;;;;;1.63;1.53;;;17.50;99.90;;;;;;5033484;28;20241;-85
2023/09/01 08:25:27;;;;;;;3.10;1.40;;;17.70;99.90;;;;;;5011175;28;20230;-84
2023/09/01 08:27:52;;;;;;;2.20;1.50;;;18.30;99.90;;;;;;5007969;28;20222;-84
2023/09/01 08:30:19;;;;;;;3.40;1.20;;;18.80;99.90;;;;;;5020289;28;20194;-85
2023/09/01 08:32:44;;;;;;;2.57;1.20;;;18.90;99.90;;;;;;5019442;28;20238;-86
2023/09/01 08:35:11;;;;;;;2.73;1.47;;;19.10;99.90;;;;;;5016965;28;20226;-86
2023/09/01 08:37:38;;;;;;;2.90;1.93;;;18.50;99.90;;;;;;5010219;28;20223;-84
2023/09/01 08:40:05;;;;;;;2.70;1.20;;;18.10;99.90;;;;;;5042938;28;20229;-82
2023/09/01 08:42:32;;;;;;;2.60;1.27;;;18.00;99.90;;;;;;5005084;28;20483;-86
2023/09/01 08:44:59;;;;;;;1.47;1.10;;;18.00;99.90;;;;;;5006101;28;20198;-83
2023/09/01 08:47:28;;;;;;;1.60;1.50;;;17.50;99.90;;;;;;4990150;28;20206;-86
2023/09/01 08:49:55;;;;;;;3.47;2.20;;;17.40;99.90;;;;;;5012090;28;20206;-86
2023/09/01 08:52:22;;;;;;;1.43;1.33;;;17.60;99.90;;;;;;4998799;28;20205;-84
2023/09/01 08:54:49;;;;;;;2.40;1.63;;;17.40;99.90;;;;;;5002435;28;21098;-84
2023/09/01 08:57:14;;;;;;;2.20;1.60;;;17.40;99.90;;;;;;5022328;28;20582;-83
2023/09/01 08:59:42;;;;;;;1.43;1.30;;;17.50;99.90;;;;;;5025253;28;20186;-85
2023/09/01 09:02:08;;;;;;;2.97;1.63;;;17.70;99.90;;;;;;4990527;28;21085;-82
2023/09/01 09:04:34;;;;;;;3.23;1.30;;;17.80;99.90;;;;;;5015362;28;20428;-82
2023/09/01 09:07:17;;;;;;;2.10;1.40;;;17.90;99.90;;;;;;5000568;28;20211;-85
2023/09/01 09:09:57;;;;;;;2.97;1.43;;;17.90;99.90;;;;;;5023653;28;20213;-84
2023/09/01 09:12:33;;;;;;;1.67;1.40;;;17.70;99.90;;;;;;5039328;28;20229;-82
2023/09/01 09:14:59;;;;;;;1.43;1.00;;;17.60;99.90;;;;;;5022683;28;20274;-87
2023/09/01 09:17:39;;;;;;;4.90;1.57;;;17.70;99.90;;;;;;5038517;28;20213;-85
2023/09/01 09:20:06;;;;;;;1.90;1.40;;;18.10;99.90;;;;;;5025089;28;20268;-85
2023/09/01 09:22:56;;;;;;;3.07;1.50;;;18.80;99.90;;;;;;4982330;28;20828;-84
2023/09/01 09:25:25;;;;;;;1.83;1.40;;;18.60;99.90;;;;;;5030643;28;20218;-84
2023/09/01 09:27:51;;;;;;;6.43;2.10;;;19.00;99.90;;;;;;5008486;28;20283;-84
2023/09/01 09:30:17;;;;;;;3.00;1.90;;;19.10;99.90;;;;;;5006187;28;20194;-83
2023/09/01 09:32:43;;;;;;;1.60;1.50;;;19.60;99.90;;;;;;4988226;28;20200;-83
2023/09/01 09:35:10;;;;;;;6.67;1.83;;;20.20;99.90;;;;;;5037316;28;20221;-82
2023/09/01 09:37:39;;;;;;;1.13;1.03;;;20.50;99.90;;;;;;5012282;28;20217;-85
2023/09/01 09:40:16;;;;;;;2.03;1.70;;;20.20;99.90;;;;;;5028942;28;20214;-85
2023/09/01 09:42:44;;;;;;;2.63;1.13;;;20.20;99.90;;;;;;5007377;28;20585;-85
2023/09/01 09:45:22;;;;;;;1.63;1.30;;;20.70;99.90;;;;;;5019990;28;20325;-85
2023/09/01 09:47:49;;;;;;;1.90;1.03;;;20.90;99.90;;;;;;5023441;28;20554;-86
2023/09/01 09:50:17;;;;;;;1.10;1.00;;;21.00;99.90;;;;;;5006492;28;20225;-85
2023/09/01 09:52:47;;;;;;;1.57;1.20;;;21.50;99.90;;;;;;5022406;28;20213;-84
2023/09/01 09:55:16;;;;;;;1.63;1.52;;;22.40;99.90;;;;;;5023353;28;20240;-85
2023/09/01 09:57:43;;;;;;;2.58;1.10;;;21.50;99.90;;;;;;5023941;28;20214;-86
2023/09/01 10:00:10;;;;;;;1.40;1.10;;;21.50;99.90;;;;;;5023984;28;21107;-81
2023/09/01 10:02:45;;;;;;;1.20;1.10;;;21.70;99.90;;;;;;4998213;28;20677;-86
2023/09/01 10:05:14;;;;;;;2.15;0.90;;;22.30;99.90;;;;;;5041421;28;20213;-85
2023/09/01 10:07:43;;;;;;;1.88;0.80;;;21.90;99.90;;;;;;5040812;28;20267;-83
2023/09/01 10:10:09;;;;;;;1.00;0.90;;;21.20;99.90;;;;;;5023267;28;20304;-84
2023/09/01 10:12:36;;;;;;;2.92;1.13;;;21.30;99.90;;;;;;5005803;28;20226;-85
2023/09/01 10:15:03;;;;;;;1.15;1.00;;;21.40;99.90;;;;;;5023047;28;20745;-83
2023/09/01 10:17:32;;;;;;;1.02;0.70;;;21.90;99.90;;;;;;5006884;28;20718;-86
2023/09/01 10:20:00;;;;;;;2.50;0.90;;;21.80;99.90;;;;;;5022609;28;20249;-86
2023/09/01 10:22:26;;;;;;;0.95;0.85;;;21.90;99.90;;;;;;4995319;28;20213;-84
2023/09/01 10:25:15;;;;;;;1.30;1.17;;;21.60;99.90;;;;;;5003250;28;20618;-85
2023/09/01 10:28:00;;;;;;;0.95;0.90;;;21.50;99.90;;;;;;5025053;28;20752;-82
2023/09/01 10:30:27;;;;;;;1.80;1.50;;;21.40;99.90;;;;;;5038316;28;20178;-83
2023/09/01 10:33:09;;;;;;;1.23;1.02;;;21.10;99.90;;;;;;4978671;28;20205;-86
2023/09/01 10:35:47;;;;;;;0.93;0.85;;;21.60;99.90;;;;;;5003233;28;20210;-86
2023/09/01 10:38:22;;;;;;;1.10;1.00;;;21.80;99.90;;;;;;5052838;28;20718;-83
2023/09/01 10:40:53;;;;;;;1.42;0.98;;;21.50;99.90;;;;;;5008835;28;20217;-86
2023/09/01 10:43:37;;;;;;;0.52;0.52;;;21.40;99.90;;;;;;5028767;28;20476;-84
2023/09/01 10:46:12;;;;;;;1.80;1.00;;;21.50;99.90;;;;;;5014658;28;20253;-84
2023/09/01 10:48:56;;;;;;;2.15;0.70;;;21.10;99.90;;;;;;5024120;28;20658;-86
2023/09/01 10:51:30;;;;;;;1.35;1.17;;;21.80;99.90;;;;;;5006198;28;20182;-82
2023/09/01 10:54:02;;;;;;;1.27;1.15;;;21.70;99.90;;;;;;5020599;28;20588;-86
2023/09/01 10:56:30;;;;;;;1.60;0.90;;;21.60;99.90;;;;;;5005084;28;20215;-85
2023/09/01 10:58:57;;;;;;;3.17;1.23;;;21.40;99.90;;;;;;4992388;28;20260;-86
2023/09/01 11:01:34;;;;;;;1.45;1.08;;;21.30;99.90;;;;;;4996793;28;20210;-86
2023/09/01 11:04:22;;;;;;;1.48;0.82;;;21.20;99.90;;;;;;5014243;28;20249;-85
2023/09/01 11:06:57;;;;;;;1.27;1.10;;;21.10;99.90;;;;;;5025355;28;20418;-83
2023/09/01 11:09:44;;;;;;;1.15;0.93;;;21.30;99.90;;;;;;5037563;28;20189;-83
2023/09/01 11:12:11;;;;;;;1.30;1.00;;;21.10;99.90;;;;;;5034051;28;20230;-86
2023/09/01 11:14:59;;;;;;;1.20;1.08;;;21.20;99.90;;;;;;5006922;28;20222;-83
2023/09/01 11:17:45;;;;;;;1.30;0.95;;;21.40;99.90;;;;;;5038539;28;20748;-85
2023/09/01 11:20:13;;;;;;;2.45;1.45;;;20.90;99.90;;;;;;5021298;28;20206;-81
2023/09/01 11:22:40;;;;;;;2.50;1.02;;;20.30;99.90;;;;;;5007677;28;20301;-85
2023/09/01 11:25:12;;;;;;;0.93;0.80;;;20.50;99.90;;;;;;5040364;28;20221;-86
2023/09/01 11:27:42;;;;;;;5.90;1.27;;;20.30;99.90;;;;;;5054901;28;20221;-84
2023/09/01 11:30:09;;;;;;;3.83;1.45;;;20.30;99.90;;;;;;5038097;28;20186;-84
2023/09/01 11:32:34;;;;;;;1.95;1.08;;;20.10;99.90;;;;;;5037459;28;20396;-84
2023/09/01 11:35:03;;;;;;;1.05;0.80;;;20.20;99.90;;;;;;5021757;28;20225;-82
2023/09/01 11:37:37;;;;;;;4.00;1.10;;;20.70;99.90;;;;;;5036594;28;20221;-83
2023/09/01 11:40:07;;;;;;;3.30;1.30;;;20.70;99.90;;;;;;5054670;28;20598;-86
2023/09/01 11:42:35;;;;;;;1.75;1.10;;;20.70;99.90;;;;;;5036927;28;20221;-85
2023/09/01 11:45:03;;;;;;;2.70;1.20;;;20.70;99.90;;;;;;5038625;28;20911;-84
2023/09/01 11:47:30;;;;;;;1.77;1.13;;;20.70;99.90;;;;;;5019051;28;20336;-87
2023/09/01 11:49:55;;;;;;;2.47;1.45;;;21.00;99.90;;;;;;5037897;28;20218;-83
2023/09/01 11:52:23;;;;;;;1.35;1.00;;;21.30;99.90;;;;;;5039449;28;20725;-86
2023/09/01 11:54:49;;;;;;;3.80;1.40;;;20.90;99.90;;;;;;5036552;28;20214;-86
2023/09/01 11:57:14;;;;;;;2.78;1.00;;;20.50;99.90;;;;;;5037749;28;20201;-83
2023/09/01 11:59:50;;;;;;;1.48;1.20;;;20.60;99.90;;;;;;5037896;28;21055;-87
2023/09/01 12:02:17;;;;;;;1.43;1.10;;;20.10;99.90;;;;;;5021253;28;20702;-82
2023/09/01 12:04:51;;;;;;;2.00;1.10;;;20.30;99.90;;;;;;5019256;28;20590;-85
2023/09/01 12:07:26;;;;;;;2.37;1.20;;;20.30;99.90;;;;;;5054005;28;20209;-83
2023/09/01 12:09:53;;;;;;;1.63;1.10;;;20.20;99.90;;;;;;5054712;28;20222;-82
2023/09/01 12:12:20;;;;;;;3.97;1.40;;;20.30;99.90;;;;;;5037500;28;20278;-85
2023/09/01 12:14:46;;;;;;;1.20;0.90;;;20.10;99.90;;;;;;5038871;28;20190;-85
2023/09/01 12:17:22;;;;;;;2.57;1.90;;;20.10;99.90;;;;;;5041281;28;20213;-85
2023/09/01 12:19:52;;;;;;;1.50;1.17;;;20.30;99.90;;;;;;5057609;28;20228;-85
2023/09/01 12:22:18;;;;;;;3.83;1.70;;;20.50;99.90;;;;;;5041756;28;20218;-86
2023/09/01 12:24:55;;;;;;;2.67;1.23;;;20.70;99.90;;;;;;5058185;28;21071;-85
2023/09/01 12:27:21;;;;;;;4.40;1.33;;;20.40;99.90;;;;;;5057828;28;20190;-83
2023/09/01 12:29:47;;;;;;;0.93;0.93;;;20.20;99.90;;;;;;5058860;28;20201;-85
2023/09/01 12:32:14;;;;;;;1.70;1.57;;;20.40;99.90;;;;;;5042303;28;20247;-85
2023/09/01 12:34:41;;;;;;;1.30;1.13;;;20.40;99.90;;;;;;5023759;28;20255;-84
2023/09/01 12:37:07;;;;;;;1.80;1.30;;;20.40;99.90;;;;;;5041908;28;20283;-86
2023/09/01 12:39:33;;;;;;;3.77;1.23;;;20.50;99.90;;;;;;5042373;28;20226;-84
2023/09/01 12:41:58;;;;;;;2.00;1.50;;;20.90;99.90;;;;;;5043403;28;20219;-84
2023/09/01 12:44:24;;;;;;;2.53;1.10;;;21.10;99.90;;;;;;5057221;28;20757;-85
2023/09/01 12:46:50;;;;;;;2.07;1.40;;;21.80;99.90;;;;;;5042156;28;21156;-83
2023/09/01 12:49:16;;;;;;;1.70;1.40;;;21.40;99.90;;;;;;5041787;28;20237;-85
2023/09/01 12:51:42;;;;;;;2.30;1.40;;;21.90;99.90;;;;;;5042412;28;20237;-87